Time;durP1;ratioP1;P1;durP2;ratioP2;P2;SDS_P1;SDS_P2;PMS_P1;PMS_P2;Temp;Humidity;BMP_temperature;BMP_pressure;BME280_temperature;BME280_humidity;BME280_pressure;Samples;Min_cycle;Max_cycle;Signal;HPM_P1;HPM_P2
2022/07/08 00:47:36;;;;;;;5.68;5.18;;;;;;;17.59;93.88;96886.94;4980789;28;20269;-69
2022/07/08 00:50:05;;;;;;;8.50;5.10;;;;;;;17.70;94.61;96898.81;4983993;28;20075;-69
2022/07/08 00:52:32;;;;;;;6.22;4.85;;;;;;;17.67;94.83;96902.44;4984274;28;20433;-69
2022/07/08 00:55:01;;;;;;;6.20;5.60;;;;;;;17.19;94.11;96809.41;4984296;28;20050;-74
2022/07/08 00:57:28;;;;;;;6.97;5.22;;;;;;;17.74;93.70;96894.72;4951220;28;20129;-69
2022/07/08 00:59:56;;;;;;;6.47;5.70;;;;;;;17.62;94.23;96895.31;4985659;28;20054;-70
2022/07/08 01:02:23;;;;;;;7.35;5.85;;;;;;;17.53;95.44;96902.63;4987492;28;20073;-69
2022/07/08 01:04:51;;;;;;;8.27;5.55;;;;;;;17.48;95.54;96889.09;4987626;28;20093;-69
2022/07/08 01:07:19;;;;;;;6.15;5.55;;;;;;;17.55;94.95;96888.97;4988278;28;20085;-70
2022/07/08 01:09:46;;;;;;;9.20;5.43;;;;;;;17.58;94.68;96888.13;4987544;28;20073;-69
2022/07/08 01:12:19;;;;;;;6.68;5.72;;;;;;;17.44;95.37;96885.50;4987113;28;20090;-70
2022/07/08 04:06:37;;;;;;;12.88;7.60;;;;;;;18.19;94.45;96940.16;4904607;29;20131;-71
2022/07/08 04:09:11;;;;;;;11.70;7.50;;;;;;;18.33;93.39;96934.34;4943594;28;20062;-70
2022/07/08 04:11:41;;;;;;;10.90;7.35;;;;;;;18.52;92.73;96925.25;4984958;28;20059;-75
2022/07/08 04:14:08;;;;;;;10.38;7.47;;;;;;;18.73;91.80;96930.50;4984789;28;20046;-74
2022/07/08 04:16:35;;;;;;;7.72;6.93;;;;;;;18.95;90.01;96920.50;4984454;28;20080;-62
2022/07/08 04:19:03;;;;;;;8.93;7.65;;;;;;;18.89;89.19;96882.91;4984770;28;20081;-61
2022/07/08 04:21:29;;;;;;;11.07;7.63;;;;;;;19.15;88.33;96929.78;4984765;28;20054;-67
2022/07/08 04:23:58;;;;;;;9.13;7.32;;;;;;;19.30;87.80;96936.72;4984480;28;20057;-67
2022/07/08 04:26:31;;;;;;;8.40;6.63;;;;;;;19.34;87.93;96931.84;4966554;28;20537;-62
2022/07/08 04:28:59;;;;;;;7.45;6.55;;;;;;;19.43;87.77;96934.88;4984445;28;20141;-62
2022/07/08 04:31:26;;;;;;;8.02;7.22;;;;;;;19.14;86.60;96882.47;4984408;28;20497;-67
2022/07/08 04:33:53;;;;;;;7.80;7.10;;;;;;;19.59;86.41;96931.34;4984144;28;20114;-62
2022/07/08 04:36:21;;;;;;;9.25;6.80;;;;;;;19.51;87.38;96930.72;4970875;28;20058;-62
2022/07/08 04:38:52;;;;;;;8.55;6.57;;;;;;;19.61;86.81;96922.50;4970895;28;20054;-73
2022/07/08 04:41:19;;;;;;;9.93;6.63;;;;;;;19.63;86.11;96932.09;4988212;28;20058;-72
2022/07/08 04:43:46;;;;;;;7.35;6.68;;;;;;;18.66;86.57;96786.72;4970766;28;20061;-67
2022/07/08 05:17:40;;;;;;;8.63;7.40;;;;;;;21.53;76.23;96928.34;5005468;28;19947;-70
2022/07/08 05:20:09;;;;;;;9.73;6.85;;;;;;;21.68;74.88;96929.53;5007113;28;20089;-70
2022/07/08 05:22:37;;;;;;;7.97;6.85;;;;;;;21.45;74.18;96879.03;5007434;28;20062;-74
2022/07/08 05:25:05;;;;;;;8.38;7.50;;;;;;;22.02;72.95;96926.94;5007018;28;20456;-74
2022/07/08 05:27:32;;;;;;;7.70;7.03;;;;;;;21.70;70.90;96836.84;5007534;28;20057;-70
2022/07/08 05:29:59;;;;;;;8.25;6.82;;;;;;;21.31;71.66;96831.53;4989245;28;20491;-70
2022/07/08 05:32:26;;;;;;;6.97;6.28;;;;;;;22.17;67.85;96925.28;5007008;28;20061;-73
2022/07/08 05:35:00;;;;;;;8.05;7.32;;;;;;;22.39;66.95;96866.13;5006481;28;20089;-74
2022/07/08 05:37:27;;;;;;;6.18;5.50;;;;;;;23.12;62.18;96936.34;5006990;28;20093;-73
2022/07/08 05:39:54;;;;;;;6.35;5.75;;;;;;;21.94;59.75;96699.91;4989410;28;20448;-74
2022/07/08 05:42:21;;;;;;;9.27;7.30;;;;;;;23.01;59.63;96916.16;5006914;28;20073;-74
2022/07/08 05:44:47;;;;;;;7.13;5.72;;;;;;;22.45;58.90;96836.88;5006516;28;20130;-74
2022/07/08 05:47:14;;;;;;;5.18;4.68;;;;;;;23.06;56.08;96869.56;5006777;28;20527;-70
2022/07/08 05:49:44;;;;;;;8.07;6.25;;;;;;;23.19;55.11;96912.72;5006252;28;20060;-68
2022/07/08 05:52:11;;;;;;;6.05;5.32;;;;;;;23.15;56.74;96872.47;5006291;28;20065;-68
2022/07/08 05:54:38;;;;;;;5.85;5.20;;;;;;;22.85;55.20;96864.63;5006011;28;20060;-68
2022/07/08 05:57:05;;;;;;;5.82;5.30;;;;;;;22.99;54.76;96869.78;5007140;28;20060;-75
2022/07/08 05:59:32;;;;;;;9.35;6.82;;;;;;;23.67;55.08;96909.38;5006023;28;20058;-76
2022/07/08 06:01:58;;;;;;;5.80;5.30;;;;;;;23.93;53.67;96871.22;5006455;28;20050;-69
2022/07/08 06:04:25;;;;;;;5.03;4.63;;;;;;;22.53;50.11;96622.09;5006203;28;20580;-69
2022/07/08 06:06:52;;;;;;;5.55;5.05;;;;;;;24.31;51.75;96863.25;5006452;28;20066;-77
2022/07/08 06:09:19;;;;;;;5.15;4.72;;;;;;;23.58;48.14;96753.75;5005876;28;20093;-69
2022/07/08 06:11:46;;;;;;;13.15;8.00;;;;;;;24.12;47.32;96836.13;5006522;28;20072;-71
2022/07/08 06:14:13;;;;;;;6.85;4.68;;;;;;;23.47;46.44;96764.69;4987847;28;20050;-68
2022/07/08 06:16:39;;;;;;;10.48;6.10;;;;;;;23.67;48.44;96884.72;5005797;28;20058;-70
2022/07/08 06:19:06;;;;;;;6.28;5.18;;;;;;;23.65;48.77;96866.63;5005902;28;20532;-72
2022/07/08 06:21:33;;;;;;;4.28;4.00;;;;;;;20.85;48.21;96443.41;5006084;28;20417;-72
2022/07/08 06:24:00;;;;;;;4.85;4.38;;;;;;;23.82;48.63;96918.94;5005655;28;20054;-75
2022/07/08 06:26:27;;;;;;;13.68;6.95;;;;;;;23.91;49.08;96899.19;5006033;28;20584;-75
2022/07/08 06:28:54;;;;;;;9.90;6.10;;;;;;;23.90;48.90;96849.47;4988564;28;20066;-71
2022/07/08 06:31:21;;;;;;;18.83;8.23;;;;;;;23.95;48.36;96857.38;5005691;28;20511;-69
2022/07/08 06:33:49;;;;;;;12.82;7.05;;;;;;;24.37;47.73;96901.06;5005628;28;20054;-67
2022/07/08 06:36:39;;;;;;;20.42;9.43;;;;;;;24.61;48.33;96898.50;5005232;28;20062;-74
2022/07/08 06:39:32;;;;;;;18.85;8.40;;;;;;;24.73;46.91;96895.56;5005883;28;20128;-73
2022/07/08 07:49:31;;;;;;;4.30;4.10;;;;;;;25.13;46.59;96873.59;5650889;22;20069;-70
2022/07/08 07:56:06;;;;;;;4.35;4.15;;;;;;;25.36;46.09;96862.94;4943472;29;20219;-76
2022/07/08 08:05:25;;;;;;;;;;;;;;;25.99;44.37;96860.03;4997706;28;20508;-67
2022/07/08 08:08:10;;;;;;;4.85;4.53;;;;;;;26.14;44.67;96861.00;5025143;28;19925;-72
2022/07/08 08:10:37;;;;;;;4.60;4.30;;;;;;;25.41;44.44;96794.25;5029103;28;20374;-69
2022/07/08 08:13:05;;;;;;;4.13;3.92;;;;;;;25.70;44.48;96786.00;5010172;28;20068;-68
2022/07/08 08:15:32;;;;;;;4.53;4.32;;;;;;;25.95;43.92;96876.47;5028041;28;20148;-69
2022/07/08 08:18:00;;;;;;;5.00;4.68;;;;;;;25.57;44.39;96810.94;5027299;28;20079;-77
2022/07/08 08:20:31;;;;;;;10.70;6.00;;;;;;;25.07;45.67;96761.31;5026144;28;20446;-72
2022/07/08 08:22:58;;;;;;;4.50;4.10;;;;;;;25.72;44.75;96835.34;5027977;28;20076;-72
2022/07/08 08:26:12;;;;;;;5.28;4.97;;;;;;;26.05;44.07;96863.88;5027669;28;20049;-68
2022/07/08 08:28:42;;;;;;;5.55;4.38;;;;;;;25.54;45.15;96857.28;5027167;28;20053;-68
2022/07/08 08:31:13;;;;;;;4.50;4.15;;;;;;;25.63;43.92;96860.91;5027294;28;20076;-68
2022/07/08 08:33:40;;;;;;;4.63;4.07;;;;;;;25.51;43.69;96778.78;5027598;28;20138;-68
2022/07/08 08:36:08;;;;;;;4.22;4.03;;;;;;;23.66;43.63;96562.75;5027631;28;20111;-67
2022/07/08 08:38:35;;;;;;;4.63;4.35;;;;;;;24.72;44.11;96723.97;5027257;28;20516;-67
2022/07/08 08:41:05;;;;;;;4.35;4.07;;;;;;;25.64;44.56;96858.84;5026451;28;20049;-70
2022/07/08 08:43:35;;;;;;;4.90;4.60;;;;;;;25.67;44.96;96784.13;5027393;28;20060;-71
2022/07/08 08:46:05;;;;;;;5.10;4.80;;;;;;;26.68;42.79;96855.13;5027112;28;20049;-68
2022/07/08 08:48:38;;;;;;;4.35;4.15;;;;;;;26.36;43.39;96850.97;5027121;28;20075;-69
2022/07/08 08:51:09;;;;;;;6.57;5.18;;;;;;;26.87;41.84;96856.63;5027403;28;20221;-73
2022/07/08 08:54:59;;;;;;;4.43;4.22;;;;;;;26.00;42.79;96850.31;5027018;28;20061;-66
2022/07/08 09:01:22;;;;;;;5.47;5.18;;;;;;;27.05;41.03;96835.78;5017038;22;20061;-73
2022/07/08 09:03:52;;;;;;;7.10;6.57;;;;;;;27.18;41.33;96845.66;5007298;28;20141;-70
2022/07/08 09:06:19;;;;;;;4.90;4.60;;;;;;;26.02;40.64;96632.00;5023981;28;20532;-75
2022/07/08 09:08:45;;;;;;;5.63;5.32;;;;;;;27.48;40.70;96838.81;5009208;28;20173;-73
2022/07/08 09:11:17;;;;;;;10.02;7.53;;;;;;;27.65;40.31;96785.03;5026457;28;20104;-74
2022/07/08 09:13:44;;;;;;;5.82;5.32;;;;;;;28.08;38.29;96830.66;5027032;28;20427;-72
2022/07/08 09:16:11;;;;;;;6.53;6.03;;;;;;;28.08;39.68;96829.88;5026347;28;20058;-74
2022/07/08 09:18:38;;;;;;;6.82;5.55;;;;;;;27.66;39.50;96724.00;5026675;28;20053;-68
2022/07/08 09:55:12;;;;;;;;;;;;;;;28.04;39.58;96809.34;5023654;28;20169;-79
2022/07/08 09:57:39;;;;;;;5.63;5.40;;;;;;;28.67;39.15;96785.78;5027886;28;19925;-83
2022/07/08 10:00:07;;;;;;;5.65;5.15;;;;;;;29.01;38.79;96804.13;5025974;28;20056;-82
2022/07/08 10:02:46;;;;;;;5.47;5.13;;;;;;;28.94;38.00;96793.16;5025801;28;20077;-73
2022/07/08 10:05:22;;;;;;;6.10;5.60;;;;;;;28.99;37.83;96789.59;5026004;28;20049;-79
2022/07/08 10:08:37;;;;;;;6.07;5.55;;;;;;;28.76;38.21;96797.03;5025938;28;20417;-72
2022/07/08 10:11:20;;;;;;;6.72;5.55;;;;;;;28.00;39.25;96687.06;4951663;28;20058;-68
2022/07/08 10:17:48;;;;;;;5.60;5.30;;;;;;;28.09;38.51;96798.03;4925840;29;20115;-74
2022/07/08 10:20:46;;;;;;;;;;;;;;;;;;;;;
2022/07/08 10:23:23;;;;;;;5.13;4.90;;;;;;;28.33;38.66;96800.75;5000371;28;20060;-73
2022/07/08 10:25:56;;;;;;;5.07;4.88;;;;;;;28.20;39.51;96765.31;5005214;28;20065;-74
2022/07/08 10:29:00;;;;;;;5.22;5.03;;;;;;;28.20;39.63;96782.41;5005655;28;20093;-72
2022/07/08 10:31:44;;;;;;;5.55;5.25;;;;;;;28.42;40.46;96794.16;4993295;28;20060;-73
2022/07/08 10:34:35;;;;;;;6.00;5.60;;;;;;;27.36;40.09;96663.44;4987976;28;20516;-69
2022/07/08 10:37:03;;;;;;;5.30;5.10;;;;;;;27.90;40.70;96785.28;5005268;28;20095;-72
2022/07/08 10:39:59;;;;;;;5.10;4.90;;;;;;;28.03;40.84;96777.22;4987847;28;20062;-65
2022/07/08 10:42:27;;;;;;;6.18;5.68;;;;;;;28.26;40.22;96732.00;5009636;28;20065;-71
2022/07/08 10:44:54;;;;;;;5.85;5.50;;;;;;;28.38;40.50;96774.41;5026084;28;20053;-68
2022/07/08 11:45:19;;;;;;;5.97;5.63;;;;;;;28.97;37.42;96733.03;5001836;28;20065;-69
2022/07/08 11:48:09;;;;;;;6.18;5.75;;;;;;;28.79;37.15;96729.66;4905069;29;20680;-75
2022/07/08 11:50:38;;;;;;;5.40;5.20;;;;;;;29.01;37.18;96729.94;4905085;29;20088;-75
2022/07/08 11:53:05;;;;;;;5.40;5.20;;;;;;;28.97;37.40;96727.34;5002493;28;20054;-70
2022/07/08 12:03:00;;;;;;;5.53;5.22;;;;;;;29.67;35.57;96673.63;5004341;28;20177;-73
2022/07/08 12:05:27;;;;;;;6.50;6.10;;;;;;;29.54;36.08;96704.63;5003980;28;20050;-73
2022/07/08 12:07:55;;;;;;;5.95;5.65;;;;;;;29.51;37.01;96708.50;5004029;28;20054;-73
2022/07/08 12:10:29;;;;;;;5.78;5.47;;;;;;;28.87;37.02;96668.06;4996152;28;20143;-69
2022/07/08 12:12:57;;;;;;;5.88;5.53;;;;;;;29.06;37.23;96703.56;5004439;28;20054;-74
2022/07/08 12:15:35;;;;;;;6.00;5.70;;;;;;;29.23;36.46;96658.91;5003782;28;20061;-68
2022/07/08 12:25:48;;;;;;;6.10;5.80;;;;;;;28.90;36.58;96618.56;4997355;28;20053;-68
2022/07/08 12:28:29;;;;;;;6.18;5.82;;;;;;;29.42;37.04;96714.34;4986682;28;20073;-68
2022/07/08 12:55:17;;;;;;;6.25;5.95;;;;;;;31.74;33.53;96733.03;5000987;28;20060;-74
2022/07/08 13:52:38;;;;;;;5.95;5.65;;;;;;;27.10;37.25;96405.69;4999764;28;20144;-73
2022/07/08 15:29:21;;;;;;;6.00;5.57;;;;;;;29.81;36.03;96607.03;4978379;28;20112;-68
2022/07/08 15:31:48;;;;;;;5.47;5.20;;;;;;;29.83;36.10;96613.00;4986144;28;20112;-73
2022/07/08 15:34:15;;;;;;;5.85;5.55;;;;;;;30.06;36.19;96591.88;4985319;28;20058;-74
2022/07/08 15:36:45;;;;;;;5.50;5.20;;;;;;;29.19;36.50;96587.00;4985238;28;20058;-73
2022/07/08 15:39:13;;;;;;;6.10;5.65;;;;;;;29.56;36.10;96604.97;4985386;28;20062;-68
2022/07/08 16:24:04;;;;;;;9.85;5.80;;;;;;;27.67;40.64;96629.56;5000592;28;20687;-72
2022/07/08 18:35:31;;;;;;;10.68;5.60;;;;;;;22.75;59.21;96634.19;5004790;28;20095;-67
2022/07/08 18:37:57;;;;;;;12.07;4.93;;;;;;;23.11;60.01;96719.22;5006210;28;20061;-70
2022/07/08 18:40:24;;;;;;;8.95;4.90;;;;;;;23.17;59.75;96718.16;5005894;28;20057;-71
2022/07/08 18:42:51;;;;;;;5.22;4.75;;;;;;;23.08;59.92;96714.47;5006211;28;20062;-67
2022/07/08 18:45:18;;;;;;;5.07;4.40;;;;;;;22.63;60.04;96661.25;5005928;28;20057;-66
2022/07/08 18:47:49;;;;;;;6.93;4.35;;;;;;;22.79;59.79;96691.34;5006029;28;20172;-70
2022/07/08 18:50:18;;;;;;;4.75;4.10;;;;;;;22.11;60.25;96619.50;5005233;28;20145;-67
2022/07/08 18:52:45;;;;;;;14.32;5.07;;;;;;;22.26;60.79;96657.28;5004997;28;20054;-68
2022/07/08 18:55:13;;;;;;;4.90;4.50;;;;;;;22.69;60.56;96734.88;5005145;28;20060;-69
2022/07/08 18:57:40;;;;;;;5.03;4.40;;;;;;;21.21;61.43;96556.53;5005868;28;20065;-72
2022/07/08 19:00:07;;;;;;;6.18;4.15;;;;;;;22.48;61.49;96737.16;4988310;28;20053;-67
2022/07/08 19:02:39;;;;;;;5.63;4.53;;;;;;;21.34;61.75;96564.97;5005902;28;20050;-68
2022/07/08 19:05:07;;;;;;;4.85;4.40;;;;;;;22.10;62.18;96696.16;5005265;28;20054;-67
2022/07/08 19:07:33;;;;;;;9.70;4.75;;;;;;;21.43;62.32;96608.13;5005521;28;20065;-71
2022/07/08 19:10:00;;;;;;;4.40;4.07;;;;;;;21.44;63.43;96649.16;5005339;28;20058;-69
2022/07/08 19:12:27;;;;;;;5.63;4.68;;;;;;;20.99;63.90;96631.69;5005388;28;20054;-67
2022/07/08 19:14:54;;;;;;;5.85;4.97;;;;;;;21.73;64.72;96745.69;4987657;28;20058;-67
2022/07/08 19:17:21;;;;;;;10.43;5.28;;;;;;;21.46;65.81;96739.69;4998046;28;20066;-71
2022/07/08 19:19:48;;;;;;;9.25;4.30;;;;;;;20.45;65.94;96599.88;4987814;28;20050;-69
2022/07/08 19:22:14;;;;;;;7.35;4.75;;;;;;;20.40;66.10;96586.34;5005532;28;20112;-66
2022/07/08 19:24:41;;;;;;;5.63;4.05;;;;;;;20.40;65.87;96589.16;5004952;28;20058;-66
2022/07/08 19:27:08;;;;;;;5.00;4.40;;;;;;;21.01;66.76;96693.97;5005477;28;20074;-71
2022/07/08 19:29:35;;;;;;;5.50;4.60;;;;;;;21.21;67.38;96750.94;5004948;28;20449;-70
2022/07/08 19:32:02;;;;;;;4.93;4.40;;;;;;;20.89;67.46;96687.03;5003663;28;20072;-67
2022/07/08 19:34:29;;;;;;;4.70;4.30;;;;;;;21.14;67.77;96748.31;4987232;28;20593;-70
2022/07/08 19:36:57;;;;;;;4.70;4.30;;;;;;;21.09;68.07;96745.25;5005182;28;20054;-66
2022/07/08 19:39:24;;;;;;;4.57;4.25;;;;;;;20.99;68.61;96741.50;4987700;28;20053;-70
2022/07/08 19:41:51;;;;;;;5.20;4.25;;;;;;;20.53;69.21;96691.31;5005175;28;20089;-69
2022/07/08 19:44:18;;;;;;;4.65;4.25;;;;;;;20.77;69.57;96740.50;4987340;28;20089;-67
2022/07/08 19:46:44;;;;;;;4.53;4.22;;;;;;;20.71;69.78;96742.25;5004972;28;20100;-66
2022/07/08 19:49:11;;;;;;;5.10;4.70;;;;;;;20.67;69.95;96744.41;5004933;28;20049;-67
2022/07/08 19:51:38;;;;;;;5.18;4.63;;;;;;;19.54;70.43;96597.47;5004841;28;20088;-70
2022/07/08 19:54:05;;;;;;;5.90;5.10;;;;;;;20.56;70.45;96743.88;5004875;28;20050;-67
2022/07/08 19:56:39;;;;;;;5.68;4.93;;;;;;;19.97;70.95;96676.69;5004885;28;20104;-67
2022/07/08 19:59:05;;;;;;;4.80;4.40;;;;;;;19.80;71.08;96651.84;5005402;28;20062;-67
